This is the latest recevied weather packets stored in our database for station/object KD8ZLZ. If no packets are shown the sender has not sent any weather packets the latest 10 day(s).
| Time | Temp. | Humidity | Pressure | Rain* | Wind** | Luminosity | Snow |
|---|---|---|---|---|---|---|---|
| 1777484429 | 10.56° C | 82% | 1012.1 hPa | 0 mm | - | - | - |
| 1777480230 | 10.56° C | 79% | 1012.9 hPa | 0 mm | - | - | - |
| 1777479929 | 10.56° C | 79% | 1012.9 hPa | 0 mm | - | - | - |
| 1777479329 | 10.56° C | 80% | 1012.9 hPa | 0 mm | - | - | - |
| 1777475150 | 9.44° C | 84% | - | 0 mm | - | - | - |
| 1777474829 | 9.44° C | 84% | - | 0.25 mm | - | - | - |
| 1777473329 | 8.89° C | 86% | - | 0.25 mm | - | - | - |
| 1777472149 | 8.89° C | 86% | - | 0.51 mm | - | - | - |
| 1777468529 | 9.44° C | 82% | - | 0 mm | - | - | - |
| 1777467329 | 9.44° C | 83% | - | 0.25 mm | - | - | - |
| 1777467029 | 9.44° C | 85% | - | 0.25 mm | - | - | - |
| 1777465530 | 9.44° C | 84% | - | 0.25 mm | - | - | - |
| 1777464629 | 9.44° C | 85% | - | 0.25 mm | - | - | - |
| 1777463129 | 9.44° C | 85% | - | 0.25 mm | - | - | - |
| 1777415429 | 17.78° C | 58% | 1013.4 hPa | 0 mm | - | - | - |
| 1777410629 | 17.22° C | 60% | 1013 hPa | 0 mm | - | - | - |
| 1777410349 | 17.78° C | 60% | 1013 hPa | 0 mm | - | - | - |
| 1777408829 | 17.78° C | 59% | 1013.1 hPa | 0 mm | - | - | - |
| 1777407350 | 17.78° C | 60% | 1013.4 hPa | 0 mm | - | - | - |
| 1777406749 | 17.78° C | 60% | 1013.4 hPa | 0 mm | - | - | - |
| 1777403128 | 16.11° C | 64% | 1013.3 hPa | 0 mm | - | - | - |
| 1777402829 | 16.67° C | 63% | 1013.3 hPa | 0 mm | - | - | - |
| 1777402529 | 16.11° C | 64% | 1013.3 hPa | 0 mm | - | - | - |
| 1777401929 | 16.11° C | 65% | 1013.3 hPa | 0 mm | - | - | - |
| 1777400428 | 15.56° C | 66% | 1012.9 hPa | 0 mm | - | - | - |
* Rain latest hour (hover to see other rain measurements)
** Current wind speed in m/s (hover to see current wind gust speed)